createdAt,value
2022-08-22T00:02:01.819Z,101427.75
2022-08-22T00:07:42.531Z,101427.75
2022-08-22T00:12:44.941Z,101427.09
2022-08-22T00:17:55.412Z,101421.69
2022-08-22T00:23:17.664Z,101430.91
2022-08-22T00:28:28.286Z,101423.19
2022-08-22T00:33:51.889Z,101428.91
2022-08-22T00:39:07.318Z,101413.72
2022-08-22T00:44:15.339Z,101409.88
2022-08-22T00:49:23.167Z,101402.94
2022-08-22T00:55:12.407Z,101406.84
2022-08-22T01:00:21.566Z,101407.16
2022-08-22T01:05:48.578Z,101406.31
2022-08-22T01:11:16.992Z,101409.38
2022-08-22T01:16:41.952Z,101405.81
2022-08-22T01:22:10.037Z,101411.38
2022-08-22T01:27:34.590Z,101401.59
2022-08-22T01:32:59.816Z,101406.50
2022-08-22T01:38:10.917Z,101404.66
2022-08-22T01:43:59.701Z,101410.19
2022-08-22T01:48:58.190Z,101406.31
2022-08-22T01:54:14.522Z,101411.03
2022-08-22T01:59:33.758Z,101414.06
2022-08-22T02:04:55.389Z,101415.22
2022-08-22T02:10:06.339Z,101418.63
2022-08-22T02:15:43.945Z,101423.50
2022-08-22T02:20:49.074Z,101415.41
2022-08-22T02:25:55.599Z,101408.16
2022-08-22T02:31:29.474Z,101413.22
2022-08-22T02:36:40.215Z,101410.88
2022-08-22T02:42:11.119Z,101410.56
2022-08-22T02:47:25.632Z,101416.59
2022-08-22T02:52:40.157Z,101411.03
2022-08-22T02:57:52.817Z,101412.03
2022-08-22T03:03:22.669Z,101406.28
2022-08-22T03:08:34.110Z,101402.84
2022-08-22T03:13:40.216Z,101405.91
2022-08-22T03:18:49.093Z,101399.28
2022-08-22T03:24:18.423Z,101407.91
2022-08-22T03:29:33.422Z,101397.97
2022-08-22T03:34:36.319Z,101404.59
2022-08-22T03:39:57.068Z,101418.19
2022-08-22T03:45:07.866Z,101401.34
2022-08-22T03:50:34.276Z,101400.72
2022-08-22T03:56:17.837Z,101395.47
2022-08-22T04:01:49.485Z,101383.69
2022-08-22T04:07:35.425Z,101381.72
2022-08-22T04:13:12.733Z,101373.16
2022-08-22T04:18:29.516Z,101379.38
2022-08-22T04:23:44.141Z,101383.41
2022-08-22T04:28:57.238Z,101372.97
2022-08-22T04:34:15.495Z,101375.00
2022-08-22T04:39:40.287Z,101363.06
2022-08-22T04:44:53.828Z,101365.56
2022-08-22T04:50:03.739Z,101367.94
2022-08-22T04:55:27.359Z,101360.84
2022-08-22T05:00:51.593Z,101361.69
2022-08-22T05:05:55.809Z,101365.59
2022-08-22T05:10:59.609Z,101371.47
2022-08-22T05:16:06.141Z,101387.47
2022-08-22T05:21:11.130Z,101388.63
2022-08-22T05:26:17.729Z,101386.25
2022-08-22T05:31:34.456Z,101393.84
2022-08-22T05:36:45.259Z,101385.78
2022-08-22T05:41:49.430Z,101398.91
2022-08-22T05:47:23.641Z,101409.16
2022-08-22T05:53:03.388Z,101409.69
2022-08-22T05:58:30.976Z,101405.13
2022-08-22T06:04:08.061Z,101417.16
2022-08-22T06:09:24.025Z,101417.72
2022-08-22T06:14:46.431Z,101424.25
2022-08-22T06:19:52.327Z,101431.97
2022-08-22T06:24:57.830Z,101421.84
2022-08-22T06:30:03.123Z,101439.91
2022-08-22T06:35:15.593Z,101432.03
2022-08-22T06:40:18.793Z,101424.13
2022-08-22T06:45:31.830Z,101431.56
2022-08-22T06:50:35.958Z,101440.47
2022-08-22T06:55:42.240Z,101447.03
2022-08-22T07:00:58.813Z,101450.88
2022-08-22T07:06:15.990Z,101445.16
2022-08-22T07:11:31.237Z,101444.78
2022-08-22T07:16:42.851Z,101440.78
2022-08-22T07:21:47.872Z,101448.84
2022-08-22T07:26:58.797Z,101441.22
2022-08-22T07:32:04.647Z,101447.09
2022-08-22T07:37:16.702Z,101441.50
2022-08-22T07:42:28.572Z,101441.16
2022-08-22T07:47:52.762Z,101445.22
2022-08-22T07:53:04.279Z,101451.13
2022-08-22T07:58:08.190Z,101443.91
2022-08-22T08:03:10.531Z,101438.34
2022-08-22T08:08:34.305Z,101437.50
2022-08-22T08:13:41.734Z,101441.06
2022-08-22T08:18:48.463Z,101440.56
2022-08-22T08:23:51.085Z,101445.78
2022-08-22T08:28:57.234Z,101451.81
2022-08-22T08:34:18.389Z,101466.47
2022-08-22T08:39:20.305Z,101468.63
2022-08-22T08:44:22.750Z,101468.13
2022-08-22T08:49:35.712Z,101481.44
2022-08-22T08:54:51.966Z,101480.44
2022-08-22T09:00:06.908Z,101484.97
2022-08-22T09:05:33.955Z,101497.28
2022-08-22T09:10:54.102Z,101493.19
2022-08-22T09:16:15.112Z,101501.81
2022-08-22T09:21:30.595Z,101503.16
2022-08-22T09:26:50.918Z,101487.00
2022-08-22T09:32:21.144Z,101493.97
2022-08-22T09:37:38.113Z,101486.00
2022-08-22T09:42:53.178Z,101481.28
2022-08-22T09:48:29.809Z,101481.97
2022-08-22T09:53:37.836Z,101483.03
2022-08-22T09:59:21.746Z,101477.31
2022-08-22T10:04:51.437Z,101480.00
2022-08-22T10:10:06.310Z,101485.06
2022-08-22T10:15:08.886Z,101491.31
2022-08-22T10:20:28.479Z,101483.06
2022-08-22T10:25:34.556Z,101488.31
2022-08-22T10:30:42.969Z,101482.56
2022-08-22T10:35:51.093Z,101465.41
2022-08-22T10:41:36.281Z,101475.50
2022-08-22T10:46:42.387Z,101474.50
2022-08-22T10:51:50.018Z,101460.72
2022-08-22T10:57:13.426Z,101457.50
2022-08-22T11:02:35.212Z,101458.34
2022-08-22T11:08:04.438Z,101454.66
2022-08-22T11:13:43.724Z,101452.47
2022-08-22T11:19:15.655Z,101448.25
2022-08-22T11:24:56.765Z,101452.47
2022-08-22T11:30:10.110Z,101452.31
2022-08-22T11:35:27.073Z,101454.16
2022-08-22T11:41:03.713Z,101450.63
2022-08-22T11:46:29.577Z,101460.03
2022-08-22T11:51:53.016Z,101455.34
2022-08-22T11:57:07.062Z,101464.78
2022-08-22T12:02:26.646Z,101438.84
2022-08-22T12:07:38.001Z,101456.72
2022-08-22T12:12:39.964Z,101461.56
2022-08-22T12:18:09.016Z,101462.63
2022-08-22T12:23:43.416Z,101462.94
2022-08-22T12:28:57.508Z,101460.94
2022-08-22T12:34:32.980Z,101469.19
2022-08-22T12:39:54.264Z,101474.94
2022-08-22T12:45:33.887Z,101470.38
2022-08-22T12:50:43.112Z,101448.81
2022-08-22T12:55:51.546Z,101472.91
2022-08-22T13:01:00.829Z,101461.78
2022-08-22T13:06:25.509Z,101469.00
2022-08-22T13:11:30.980Z,101450.13
2022-08-22T13:16:49.018Z,101436.00
2022-08-22T13:22:10.054Z,101436.16
2022-08-22T13:27:35.108Z,101432.25
2022-08-22T13:32:45.641Z,101429.06
2022-08-22T13:37:52.489Z,101406.16
2022-08-22T13:43:05.543Z,101424.47
2022-08-22T13:48:17.346Z,101416.72
2022-08-22T13:53:49.374Z,101406.13
2022-08-22T13:59:07.816Z,101402.06
2022-08-22T14:04:36.092Z,101399.19
2022-08-22T14:09:54.674Z,101403.91
2022-08-22T14:15:04.483Z,101399.69
2022-08-22T14:20:32.218Z,101399.19
2022-08-22T14:25:40.664Z,101388.03
2022-08-22T14:31:13.325Z,101389.56
2022-08-22T14:36:43.327Z,101380.81
2022-08-22T14:41:58.551Z,101388.91
2022-08-22T14:47:15.814Z,101360.03
2022-08-22T14:52:44.675Z,101365.75
2022-08-22T14:57:57.905Z,101364.91
2022-08-22T15:03:14.978Z,101365.44
2022-08-22T15:08:51.624Z,101370.78
2022-08-22T15:14:03.397Z,101356.81
2022-08-22T15:19:27.237Z,101350.91
2022-08-22T15:24:30.388Z,101354.44
2022-08-22T15:29:34.189Z,101348.13
2022-08-22T15:34:42.053Z,101339.31
2022-08-22T15:40:02.855Z,101345.19
2022-08-22T15:45:34.135Z,101344.00
2022-08-22T15:50:56.919Z,101342.63
2022-08-22T15:56:15.390Z,101344.16
2022-08-22T16:01:24.314Z,101340.41
2022-08-22T16:06:44.757Z,101351.41
2022-08-22T16:11:55.735Z,101345.31
2022-08-22T16:17:03.826Z,101340.91
2022-08-22T16:22:08.492Z,101341.22
2022-08-22T16:27:22.733Z,101338.03
2022-08-22T16:32:28.372Z,101341.22
2022-08-22T16:37:50.810Z,101341.03
2022-08-22T16:43:17.589Z,101345.59
2022-08-22T16:48:25.361Z,101346.25
2022-08-22T16:53:30.158Z,101352.31
2022-08-22T16:59:13.894Z,101345.75
2022-08-22T17:04:59.237Z,101351.13
2022-08-22T17:10:26.896Z,101351.47
2022-08-22T17:15:59.290Z,101353.19
2022-08-22T17:21:29.006Z,101347.31
2022-08-22T17:26:56.385Z,101345.47
2022-08-22T17:32:07.517Z,101350.88
2022-08-22T17:37:16.101Z,101349.47
2022-08-22T17:42:37.705Z,101353.88
2022-08-22T17:47:49.667Z,101358.09
2022-08-22T17:53:11.384Z,101356.72
2022-08-22T17:58:37.935Z,101349.47
2022-08-22T18:03:52.848Z,101350.31
2022-08-22T18:14:35.821Z,101356.59
2022-08-22T18:19:55.338Z,101352.97
2022-08-22T18:25:03.655Z,101360.22
2022-08-22T18:30:19.918Z,101373.59
2022-08-22T18:35:29.021Z,101367.91
2022-08-22T18:40:37.230Z,101375.47
2022-08-22T18:45:51.566Z,101382.88
2022-08-22T18:51:35.887Z,101395.56
2022-08-22T18:56:54.738Z,101372.81
2022-08-22T19:02:54.269Z,101395.06
2022-08-22T19:08:37.017Z,101412.41
2022-08-22T19:13:47.767Z,101411.56
2022-08-22T19:18:58.188Z,101424.03
2022-08-22T19:24:01.231Z,101424.22
2022-08-22T19:29:12.298Z,101430.59
2022-08-22T19:34:39.862Z,101429.44
2022-08-22T19:39:41.848Z,101429.59
2022-08-22T19:44:54.805Z,101451.50
2022-08-22T19:50:10.452Z,101443.75
2022-08-22T19:55:18.344Z,101442.91
2022-08-22T20:00:53.613Z,101448.47
2022-08-22T20:06:05.950Z,101430.13
2022-08-22T20:11:39.066Z,101441.38
2022-08-22T20:17:01.890Z,101438.34
2022-08-22T20:22:08.134Z,101449.50
2022-08-22T20:27:15.591Z,101444.09
2022-08-22T20:32:23.187Z,101438.72
2022-08-22T20:37:45.514Z,101435.81
2022-08-22T20:42:53.978Z,101430.06
2022-08-22T20:47:56.385Z,101436.31
2022-08-22T20:53:09.635Z,101423.69
2022-08-22T20:58:27.204Z,101427.53
2022-08-22T21:03:52.167Z,101417.94
2022-08-22T21:09:30.025Z,101425.19
2022-08-22T21:14:34.876Z,101427.72
2022-08-22T21:19:36.919Z,101422.34
2022-08-22T21:24:38.979Z,101437.03
2022-08-22T21:29:46.754Z,101436.84
2022-08-22T21:34:49.807Z,101443.06
2022-08-22T21:40:04.558Z,101432.66
2022-08-22T21:45:11.317Z,101429.09
2022-08-22T21:50:13.209Z,101427.91
2022-08-22T21:55:30.425Z,101427.06
2022-08-22T22:01:24.838Z,101432.66
2022-08-22T22:06:27.658Z,101432.28
2022-08-22T22:11:29.721Z,101428.75
2022-08-22T22:16:32.733Z,101435.81
2022-08-22T22:21:34.716Z,101435.16
2022-08-22T22:26:36.716Z,101428.25
2022-08-22T22:31:38.763Z,101431.44
2022-08-22T22:36:42.240Z,101419.97
2022-08-22T22:41:44.246Z,101410.19
2022-08-22T22:46:46.218Z,101410.19
2022-08-22T22:51:49.135Z,101409.41
2022-08-22T22:56:51.195Z,101422.50
2022-08-22T23:02:09.136Z,101426.06
2022-08-22T23:07:13.111Z,101421.50
2022-08-22T23:12:15.506Z,101424.88
2022-08-22T23:17:18.295Z,101425.56
2022-08-22T23:22:20.672Z,101425.22
2022-08-22T23:27:22.797Z,101418.81
2022-08-22T23:32:24.761Z,101413.75
2022-08-22T23:37:26.754Z,101416.97
2022-08-22T23:42:29.599Z,101412.56
2022-08-22T23:47:31.590Z,101408.03
2022-08-22T23:52:34.310Z,101405.00
2022-08-22T23:57:36.368Z,101392.91
